sensor_id;sensor_type;location;lat;lon;timestamp;P1;durP1;ratioP1;P2;durP2;ratioP2
30862;SDS011;17573;55.922;37.540;2024-03-23T00:56:15;56.65;;;30.55;;
30862;SDS011;17573;55.922;37.540;2024-03-23T00:58:41;52.03;;;31.08;;
30862;SDS011;17573;55.922;37.540;2024-03-23T01:01:07;50.95;;;28.75;;
30862;SDS011;17573;55.922;37.540;2024-03-23T01:03:33;53.03;;;28.42;;
30862;SDS011;17573;55.922;37.540;2024-03-23T01:05:59;66.88;;;34.72;;
30862;SDS011;17573;55.922;37.540;2024-03-23T01:08:26;56.53;;;31.10;;
30862;SDS011;17573;55.922;37.540;2024-03-23T01:10:56;61.00;;;33.00;;
30862;SDS011;17573;55.922;37.540;2024-03-23T01:13:22;46.53;;;25.95;;
30862;SDS011;17573;55.922;37.540;2024-03-23T01:15:52;57.33;;;32.30;;
30862;SDS011;17573;55.922;37.540;2024-03-23T01:18:18;59.90;;;30.35;;
30862;SDS011;17573;55.922;37.540;2024-03-23T01:20:44;55.60;;;28.45;;
30862;SDS011;17573;55.922;37.540;2024-03-23T01:23:11;53.83;;;27.15;;
30862;SDS011;17573;55.922;37.540;2024-03-23T01:25:36;62.20;;;31.67;;
30862;SDS011;17573;55.922;37.540;2024-03-23T01:28:02;50.33;;;25.42;;
30862;SDS011;17573;55.922;37.540;2024-03-23T01:30:28;59.30;;;32.00;;
30862;SDS011;17573;55.922;37.540;2024-03-23T01:32:55;47.28;;;25.38;;
30862;SDS011;17573;55.922;37.540;2024-03-23T01:35:21;63.58;;;32.17;;
30862;SDS011;17573;55.922;37.540;2024-03-23T01:37:47;58.55;;;30.63;;
30862;SDS011;17573;55.922;37.540;2024-03-23T01:40:13;56.33;;;30.35;;
30862;SDS011;17573;55.922;37.540;2024-03-23T01:42:39;62.90;;;34.42;;
30862;SDS011;17573;55.922;37.540;2024-03-23T01:45:08;56.80;;;30.63;;
30862;SDS011;17573;55.922;37.540;2024-03-23T01:47:35;55.53;;;31.25;;
30862;SDS011;17573;55.922;37.540;2024-03-23T01:50:01;59.10;;;32.92;;
30862;SDS011;17573;55.922;37.540;2024-03-23T01:52:29;51.80;;;28.45;;
30862;SDS011;17573;55.922;37.540;2024-03-23T01:54:56;53.03;;;28.17;;
30862;SDS011;17573;55.922;37.540;2024-03-23T01:57:21;62.35;;;33.88;;
30862;SDS011;17573;55.922;37.540;2024-03-23T01:59:47;58.55;;;30.98;;
30862;SDS011;17573;55.922;37.540;2024-03-23T02:04:46;55.65;;;30.73;;
30862;SDS011;17573;55.922;37.540;2024-03-23T02:07:12;63.85;;;32.35;;
30862;SDS011;17573;55.922;37.540;2024-03-23T02:09:38;57.40;;;33.63;;
30862;SDS011;17573;55.922;37.540;2024-03-23T02:12:03;60.65;;;33.80;;
30862;SDS011;17573;55.922;37.540;2024-03-23T02:14:30;52.47;;;28.95;;
30862;SDS011;17573;55.922;37.540;2024-03-23T02:16:56;50.85;;;31.05;;
30862;SDS011;17573;55.922;37.540;2024-03-23T02:19:21;64.60;;;35.08;;
30862;SDS011;17573;55.922;37.540;2024-03-23T02:21:47;72.72;;;35.65;;
30862;SDS011;17573;55.922;37.540;2024-03-23T02:24:13;58.80;;;30.77;;
30862;SDS011;17573;55.922;37.540;2024-03-23T02:26:39;68.50;;;31.40;;
30862;SDS011;17573;55.922;37.540;2024-03-23T02:29:05;58.35;;;32.38;;
30862;SDS011;17573;55.922;37.540;2024-03-23T02:31:30;58.35;;;31.73;;
30862;SDS011;17573;55.922;37.540;2024-03-23T02:33:56;50.33;;;25.88;;
30862;SDS011;17573;55.922;37.540;2024-03-23T02:36:22;54.63;;;28.50;;
30862;SDS011;17573;55.922;37.540;2024-03-23T02:38:48;67.22;;;30.88;;
30862;SDS011;17573;55.922;37.540;2024-03-23T02:41:14;62.40;;;33.33;;
30862;SDS011;17573;55.922;37.540;2024-03-23T02:43:40;57.67;;;32.00;;
30862;SDS011;17573;55.922;37.540;2024-03-23T02:46:05;60.35;;;33.72;;
30862;SDS011;17573;55.922;37.540;2024-03-23T02:48:32;53.13;;;27.92;;
30862;SDS011;17573;55.922;37.540;2024-03-23T02:50:58;58.60;;;30.50;;
30862;SDS011;17573;55.922;37.540;2024-03-23T02:53:24;50.05;;;26.08;;
30862;SDS011;17573;55.922;37.540;2024-03-23T02:55:50;55.30;;;31.08;;
30862;SDS011;17573;55.922;37.540;2024-03-23T02:58:16;64.72;;;33.53;;
30862;SDS011;17573;55.922;37.540;2024-03-23T03:00:41;61.22;;;28.75;;
30862;SDS011;17573;55.922;37.540;2024-03-23T03:03:07;62.47;;;30.83;;
30862;SDS011;17573;55.922;37.540;2024-03-23T03:05:34;54.55;;;29.38;;
30862;SDS011;17573;55.922;37.540;2024-03-23T03:08:00;55.28;;;28.13;;
30862;SDS011;17573;55.922;37.540;2024-03-23T03:10:25;27.88;;;16.83;;
30862;SDS011;17573;55.922;37.540;2024-03-23T03:12:51;52.35;;;29.08;;
30862;SDS011;17573;55.922;37.540;2024-03-23T03:15:17;42.72;;;22.27;;
30862;SDS011;17573;55.922;37.540;2024-03-23T03:17:43;50.85;;;27.05;;
30862;SDS011;17573;55.922;37.540;2024-03-23T03:20:10;58.30;;;28.40;;
30862;SDS011;17573;55.922;37.540;2024-03-23T03:22:39;63.08;;;35.10;;
30862;SDS011;17573;55.922;37.540;2024-03-23T03:25:05;44.30;;;24.23;;
30862;SDS011;17573;55.922;37.540;2024-03-23T03:27:32;56.85;;;28.60;;
30862;SDS011;17573;55.922;37.540;2024-03-23T03:30:00;58.65;;;33.00;;
30862;SDS011;17573;55.922;37.540;2024-03-23T03:32:29;58.83;;;32.05;;
30862;SDS011;17573;55.922;37.540;2024-03-23T03:34:55;47.40;;;24.98;;
30862;SDS011;17573;55.922;37.540;2024-03-23T03:37:21;59.60;;;34.22;;
30862;SDS011;17573;55.922;37.540;2024-03-23T03:39:47;55.85;;;30.48;;
30862;SDS011;17573;55.922;37.540;2024-03-23T03:42:12;60.08;;;30.02;;
30862;SDS011;17573;55.922;37.540;2024-03-23T03:44:38;54.13;;;27.23;;
30862;SDS011;17573;55.922;37.540;2024-03-23T03:47:05;54.67;;;28.75;;
30862;SDS011;17573;55.922;37.540;2024-03-23T03:49:32;58.88;;;32.05;;
30862;SDS011;17573;55.922;37.540;2024-03-23T03:51:57;45.70;;;27.17;;
30862;SDS011;17573;55.922;37.540;2024-03-23T03:54:23;40.38;;;25.77;;
30862;SDS011;17573;55.922;37.540;2024-03-23T03:56:49;49.78;;;26.83;;
30862;SDS011;17573;55.922;37.540;2024-03-23T03:59:15;58.10;;;30.10;;
30862;SDS011;17573;55.922;37.540;2024-03-23T04:01:42;53.75;;;30.80;;
30862;SDS011;17573;55.922;37.540;2024-03-23T04:04:08;52.72;;;29.75;;
30862;SDS011;17573;55.922;37.540;2024-03-23T04:06:34;60.75;;;31.90;;
30862;SDS011;17573;55.922;37.540;2024-03-23T04:09:00;57.92;;;31.15;;
30862;SDS011;17573;55.922;37.540;2024-03-23T04:11:26;55.55;;;27.10;;
30862;SDS011;17573;55.922;37.540;2024-03-23T04:13:52;62.58;;;31.33;;
30862;SDS011;17573;55.922;37.540;2024-03-23T04:16:31;64.68;;;28.85;;
30862;SDS011;17573;55.922;37.540;2024-03-23T04:19:00;50.92;;;29.05;;
30862;SDS011;17573;55.922;37.540;2024-03-23T04:21:26;48.58;;;24.38;;
30862;SDS011;17573;55.922;37.540;2024-03-23T04:23:52;61.38;;;31.20;;
30862;SDS011;17573;55.922;37.540;2024-03-23T04:26:17;61.13;;;31.23;;
30862;SDS011;17573;55.922;37.540;2024-03-23T04:28:43;51.85;;;27.80;;
30862;SDS011;17573;55.922;37.540;2024-03-23T04:31:09;55.35;;;32.05;;
30862;SDS011;17573;55.922;37.540;2024-03-23T04:33:35;62.47;;;33.70;;
30862;SDS011;17573;55.922;37.540;2024-03-23T04:36:01;58.72;;;29.52;;
30862;SDS011;17573;55.922;37.540;2024-03-23T04:38:28;53.35;;;31.25;;
30862;SDS011;17573;55.922;37.540;2024-03-23T04:40:55;38.83;;;21.67;;
30862;SDS011;17573;55.922;37.540;2024-03-23T04:43:24;54.35;;;32.60;;
30862;SDS011;17573;55.922;37.540;2024-03-23T04:45:50;56.42;;;29.73;;
30862;SDS011;17573;55.922;37.540;2024-03-23T04:48:17;52.58;;;26.20;;
30862;SDS011;17573;55.922;37.540;2024-03-23T04:50:48;53.80;;;29.20;;
30862;SDS011;17573;55.922;37.540;2024-03-23T04:53:15;41.00;;;22.20;;
30862;SDS011;17573;55.922;37.540;2024-03-23T04:55:44;56.63;;;30.73;;
30862;SDS011;17573;55.922;37.540;2024-03-23T04:58:09;55.88;;;28.05;;
30862;SDS011;17573;55.922;37.540;2024-03-23T05:00:35;54.83;;;31.65;;
30862;SDS011;17573;55.922;37.540;2024-03-23T05:03:01;54.60;;;31.20;;
30862;SDS011;17573;55.922;37.540;2024-03-23T05:05:27;59.17;;;27.52;;
30862;SDS011;17573;55.922;37.540;2024-03-23T05:07:53;66.90;;;32.00;;
30862;SDS011;17573;55.922;37.540;2024-03-23T05:10:19;61.38;;;32.75;;
30862;SDS011;17573;55.922;37.540;2024-03-23T05:12:45;53.78;;;30.00;;
30862;SDS011;17573;55.922;37.540;2024-03-23T05:15:11;54.83;;;29.92;;
30862;SDS011;17573;55.922;37.540;2024-03-23T05:17:36;55.88;;;29.73;;
30862;SDS011;17573;55.922;37.540;2024-03-23T05:20:03;56.63;;;29.63;;
30862;SDS011;17573;55.922;37.540;2024-03-23T05:22:30;52.65;;;27.80;;
30862;SDS011;17573;55.922;37.540;2024-03-23T05:24:56;44.47;;;24.45;;
30862;SDS011;17573;55.922;37.540;2024-03-23T05:27:22;70.57;;;30.60;;
30862;SDS011;17573;55.922;37.540;2024-03-23T05:29:48;56.15;;;30.42;;
30862;SDS011;17573;55.922;37.540;2024-03-23T05:32:14;50.78;;;28.80;;
30862;SDS011;17573;55.922;37.540;2024-03-23T05:34:40;55.22;;;29.35;;
30862;SDS011;17573;55.922;37.540;2024-03-23T05:37:06;56.88;;;27.95;;
30862;SDS011;17573;55.922;37.540;2024-03-23T05:39:32;43.63;;;20.77;;
30862;SDS011;17573;55.922;37.540;2024-03-23T05:41:58;42.80;;;29.00;;
30862;SDS011;17573;55.922;37.540;2024-03-23T05:44:24;42.80;;;25.13;;
30862;SDS011;17573;55.922;37.540;2024-03-23T05:46:50;41.47;;;24.08;;
30862;SDS011;17573;55.922;37.540;2024-03-23T05:49:15;53.13;;;27.40;;
30862;SDS011;17573;55.922;37.540;2024-03-23T05:51:43;40.70;;;24.70;;
30862;SDS011;17573;55.922;37.540;2024-03-23T05:54:08;44.05;;;24.73;;
30862;SDS011;17573;55.922;37.540;2024-03-23T05:56:34;32.85;;;21.50;;
30862;SDS011;17573;55.922;37.540;2024-03-23T05:59:00;34.95;;;23.52;;
30862;SDS011;17573;55.922;37.540;2024-03-23T06:01:26;48.58;;;28.05;;
30862;SDS011;17573;55.922;37.540;2024-03-23T06:03:54;43.22;;;26.70;;
30862;SDS011;17573;55.922;37.540;2024-03-23T06:06:20;39.50;;;23.63;;
30862;SDS011;17573;55.922;37.540;2024-03-23T06:08:46;43.88;;;23.80;;
30862;SDS011;17573;55.922;37.540;2024-03-23T06:11:12;33.53;;;18.40;;
30862;SDS011;17573;55.922;37.540;2024-03-23T06:13:38;26.25;;;16.50;;
30862;SDS011;17573;55.922;37.540;2024-03-23T06:16:04;46.80;;;22.00;;
30862;SDS011;17573;55.922;37.540;2024-03-23T06:18:30;44.25;;;22.88;;
30862;SDS011;17573;55.922;37.540;2024-03-23T06:20:56;36.58;;;21.15;;
30862;SDS011;17573;55.922;37.540;2024-03-23T06:23:23;33.20;;;20.30;;
30862;SDS011;17573;55.922;37.540;2024-03-23T06:25:48;38.92;;;22.95;;
30862;SDS011;17573;55.922;37.540;2024-03-23T06:28:14;38.28;;;21.50;;
30862;SDS011;17573;55.922;37.540;2024-03-23T06:30:40;49.08;;;22.30;;
30862;SDS011;17573;55.922;37.540;2024-03-23T06:33:06;41.50;;;20.45;;
30862;SDS011;17573;55.922;37.540;2024-03-23T06:35:31;39.53;;;21.83;;
30862;SDS011;17573;55.922;37.540;2024-03-23T06:37:57;37.35;;;19.33;;
30862;SDS011;17573;55.922;37.540;2024-03-23T06:40:26;30.40;;;20.15;;
30862;SDS011;17573;55.922;37.540;2024-03-23T06:42:52;45.75;;;20.92;;
30862;SDS011;17573;55.922;37.540;2024-03-23T06:45:18;47.97;;;21.85;;
30862;SDS011;17573;55.922;37.540;2024-03-23T06:47:49;38.25;;;19.92;;
30862;SDS011;17573;55.922;37.540;2024-03-23T06:50:16;40.00;;;21.83;;
30862;SDS011;17573;55.922;37.540;2024-03-23T06:52:42;35.88;;;18.20;;
30862;SDS011;17573;55.922;37.540;2024-03-23T06:55:07;25.75;;;16.45;;
30862;SDS011;17573;55.922;37.540;2024-03-23T06:57:33;39.92;;;20.88;;
30862;SDS011;17573;55.922;37.540;2024-03-23T06:59:59;28.40;;;18.58;;
30862;SDS011;17573;55.922;37.540;2024-03-23T07:02:25;41.13;;;17.73;;
30862;SDS011;17573;55.922;37.540;2024-03-23T07:04:51;25.27;;;16.95;;
30862;SDS011;17573;55.922;37.540;2024-03-23T07:07:17;32.50;;;18.98;;
30862;SDS011;17573;55.922;37.540;2024-03-23T07:09:42;22.75;;;15.75;;
30862;SDS011;17573;55.922;37.540;2024-03-23T07:12:09;20.52;;;13.60;;
30862;SDS011;17573;55.922;37.540;2024-03-23T07:14:34;27.65;;;18.35;;
30862;SDS011;17573;55.922;37.540;2024-03-23T07:17:00;24.40;;;16.77;;
30862;SDS011;17573;55.922;37.540;2024-03-23T07:19:26;26.20;;;16.23;;
30862;SDS011;17573;55.922;37.540;2024-03-23T07:21:53;29.90;;;16.10;;
30862;SDS011;17573;55.922;37.540;2024-03-23T07:24:18;33.70;;;16.33;;
30862;SDS011;17573;55.922;37.540;2024-03-23T07:26:44;17.52;;;11.77;;
30862;SDS011;17573;55.922;37.540;2024-03-23T07:29:10;27.05;;;17.50;;
30862;SDS011;17573;55.922;37.540;2024-03-23T07:31:36;21.65;;;13.90;;
30862;SDS011;17573;55.922;37.540;2024-03-23T07:34:02;24.23;;;15.65;;
30862;SDS011;17573;55.922;37.540;2024-03-23T07:36:28;25.20;;;16.15;;
30862;SDS011;17573;55.922;37.540;2024-03-23T07:38:54;22.92;;;14.20;;
30862;SDS011;17573;55.922;37.540;2024-03-23T07:41:20;20.85;;;15.05;;
30862;SDS011;17573;55.922;37.540;2024-03-23T07:43:46;36.30;;;13.98;;
30862;SDS011;17573;55.922;37.540;2024-03-23T07:46:14;28.08;;;15.18;;
30862;SDS011;17573;55.922;37.540;2024-03-23T07:48:40;37.35;;;16.98;;
30862;SDS011;17573;55.922;37.540;2024-03-23T07:51:16;24.17;;;15.63;;
30862;SDS011;17573;55.922;37.540;2024-03-23T07:53:44;39.75;;;17.85;;
30862;SDS011;17573;55.922;37.540;2024-03-23T07:56:17;35.30;;;16.23;;
30862;SDS011;17573;55.922;37.540;2024-03-23T07:58:44;28.20;;;18.95;;
30862;SDS011;17573;55.922;37.540;2024-03-23T08:01:11;22.60;;;13.95;;
30862;SDS011;17573;55.922;37.540;2024-03-23T08:03:38;20.73;;;14.27;;
30862;SDS011;17573;55.922;37.540;2024-03-23T08:06:15;28.55;;;16.60;;
30862;SDS011;17573;55.922;37.540;2024-03-23T08:08:44;25.40;;;14.70;;
30862;SDS011;17573;55.922;37.540;2024-03-23T08:11:10;33.63;;;17.95;;
30862;SDS011;17573;55.922;37.540;2024-03-23T08:13:38;19.95;;;14.07;;
30862;SDS011;17573;55.922;37.540;2024-03-23T08:16:04;20.85;;;13.15;;
30862;SDS011;17573;55.922;37.540;2024-03-23T08:18:30;19.02;;;12.52;;
30862;SDS011;17573;55.922;37.540;2024-03-23T08:21:00;24.15;;;13.48;;
30862;SDS011;17573;55.922;37.540;2024-03-23T08:23:27;27.13;;;14.90;;
30862;SDS011;17573;55.922;37.540;2024-03-23T08:26:00;30.08;;;16.92;;
30862;SDS011;17573;55.922;37.540;2024-03-23T08:28:27;27.42;;;17.00;;
30862;SDS011;17573;55.922;37.540;2024-03-23T08:30:53;19.20;;;14.45;;
30862;SDS011;17573;55.922;37.540;2024-03-23T08:33:19;24.00;;;16.25;;
30862;SDS011;17573;55.922;37.540;2024-03-23T08:35:55;20.45;;;14.73;;
30862;SDS011;17573;55.922;37.540;2024-03-23T08:38:23;35.28;;;18.08;;
30862;SDS011;17573;55.922;37.540;2024-03-23T08:40:58;20.10;;;12.55;;
30862;SDS011;17573;55.922;37.540;2024-03-23T08:43:25;23.02;;;15.35;;
30862;SDS011;17573;55.922;37.540;2024-03-23T08:45:51;25.50;;;16.38;;
30862;SDS011;17573;55.922;37.540;2024-03-23T08:48:21;29.02;;;18.75;;
30862;SDS011;17573;55.922;37.540;2024-03-23T08:50:47;29.17;;;17.63;;
30862;SDS011;17573;55.922;37.540;2024-03-23T08:53:14;24.27;;;16.65;;
30862;SDS011;17573;55.922;37.540;2024-03-23T08:55:39;24.02;;;17.38;;
30862;SDS011;17573;55.922;37.540;2024-03-23T08:58:05;29.88;;;16.65;;
30862;SDS011;17573;55.922;37.540;2024-03-23T09:00:34;26.42;;;17.17;;
30862;SDS011;17573;55.922;37.540;2024-03-23T09:03:00;25.55;;;16.77;;
30862;SDS011;17573;55.922;37.540;2024-03-23T09:05:27;30.83;;;18.73;;
30862;SDS011;17573;55.922;37.540;2024-03-23T09:07:54;32.20;;;17.88;;
30862;SDS011;17573;55.922;37.540;2024-03-23T09:10:20;23.23;;;16.00;;
30862;SDS011;17573;55.922;37.540;2024-03-23T09:12:47;26.95;;;16.83;;
30862;SDS011;17573;55.922;37.540;2024-03-23T09:15:15;28.60;;;16.60;;
30862;SDS011;17573;55.922;37.540;2024-03-23T09:17:41;37.35;;;17.83;;
30862;SDS011;17573;55.922;37.540;2024-03-23T09:20:26;21.83;;;12.82;;
30862;SDS011;17573;55.922;37.540;2024-03-23T09:22:51;29.88;;;16.95;;
30862;SDS011;17573;55.922;37.540;2024-03-23T09:25:17;26.10;;;18.42;;
30862;SDS011;17573;55.922;37.540;2024-03-23T09:27:45;34.15;;;16.67;;
30862;SDS011;17573;55.922;37.540;2024-03-23T09:30:12;38.28;;;18.08;;
30862;SDS011;17573;55.922;37.540;2024-03-23T09:32:39;40.55;;;18.38;;
30862;SDS011;17573;55.922;37.540;2024-03-23T09:35:07;29.65;;;18.10;;
30862;SDS011;17573;55.922;37.540;2024-03-23T09:37:33;28.67;;;17.88;;
30862;SDS011;17573;55.922;37.540;2024-03-23T09:39:59;24.25;;;15.88;;
30862;SDS011;17573;55.922;37.540;2024-03-23T09:42:24;28.40;;;19.70;;
30862;SDS011;17573;55.922;37.540;2024-03-23T09:44:50;29.83;;;18.98;;
30862;SDS011;17573;55.922;37.540;2024-03-23T09:47:16;24.50;;;17.02;;
30862;SDS011;17573;55.922;37.540;2024-03-23T09:49:42;36.08;;;20.63;;
30862;SDS011;17573;55.922;37.540;2024-03-23T09:52:08;31.75;;;19.13;;
30862;SDS011;17573;55.922;37.540;2024-03-23T09:54:35;23.67;;;16.05;;
30862;SDS011;17573;55.922;37.540;2024-03-23T09:57:00;32.40;;;19.67;;
30862;SDS011;17573;55.922;37.540;2024-03-23T09:59:26;34.90;;;18.83;;
30862;SDS011;17573;55.922;37.540;2024-03-23T10:01:52;32.15;;;20.27;;
30862;SDS011;17573;55.922;37.540;2024-03-23T10:07:21;35.83;;;20.90;;
30862;SDS011;17573;55.922;37.540;2024-03-23T10:09:50;39.00;;;22.30;;
30862;SDS011;17573;55.922;37.540;2024-03-23T10:12:19;38.80;;;20.38;;
30862;SDS011;17573;55.922;37.540;2024-03-23T10:14:45;33.72;;;19.30;;
30862;SDS011;17573;55.922;37.540;2024-03-23T10:19:45;30.25;;;18.95;;
30862;SDS011;17573;55.922;37.540;2024-03-23T10:22:17;30.80;;;19.20;;
30862;SDS011;17573;55.922;37.540;2024-03-23T10:24:43;30.08;;;19.08;;
30862;SDS011;17573;55.922;37.540;2024-03-23T10:27:09;22.67;;;15.40;;
30862;SDS011;17573;55.922;37.540;2024-03-23T10:29:35;24.73;;;16.25;;
30862;SDS011;17573;55.922;37.540;2024-03-23T10:32:07;26.90;;;17.52;;
30862;SDS011;17573;55.922;37.540;2024-03-23T10:37:01;27.38;;;17.27;;
30862;SDS011;17573;55.922;37.540;2024-03-23T10:39:30;28.42;;;17.58;;
30862;SDS011;17573;55.922;37.540;2024-03-23T10:41:56;24.08;;;17.10;;
30862;SDS011;17573;55.922;37.540;2024-03-23T10:44:22;26.60;;;15.73;;
30862;SDS011;17573;55.922;37.540;2024-03-23T10:46:51;26.33;;;16.67;;
30862;SDS011;17573;55.922;37.540;2024-03-23T10:49:25;26.65;;;16.00;;
30862;SDS011;17573;55.922;37.540;2024-03-23T10:51:52;31.23;;;17.30;;
30862;SDS011;17573;55.922;37.540;2024-03-23T10:54:18;25.67;;;16.15;;
30862;SDS011;17573;55.922;37.540;2024-03-23T10:56:44;27.58;;;17.88;;
30862;SDS011;17573;55.922;37.540;2024-03-23T10:59:11;19.70;;;15.23;;
30862;SDS011;17573;55.922;37.540;2024-03-23T11:01:53;27.98;;;17.60;;
30862;SDS011;17573;55.922;37.540;2024-03-23T11:04:32;25.63;;;17.10;;
30862;SDS011;17573;55.922;37.540;2024-03-23T11:07:03;33.40;;;15.68;;
30862;SDS011;17573;55.922;37.540;2024-03-23T11:09:52;26.60;;;16.42;;
30862;SDS011;17573;55.922;37.540;2024-03-23T11:15:11;25.58;;;16.40;;
30862;SDS011;17573;55.922;37.540;2024-03-23T11:17:38;23.42;;;15.70;;
30862;SDS011;17573;55.922;37.540;2024-03-23T11:20:04;19.67;;;14.98;;
30862;SDS011;17573;55.922;37.540;2024-03-23T11:25:13;20.52;;;16.15;;
30862;SDS011;17573;55.922;37.540;2024-03-23T11:27:39;22.73;;;15.85;;
30862;SDS011;17573;55.922;37.540;2024-03-23T11:32:38;23.08;;;15.27;;
30862;SDS011;17573;55.922;37.540;2024-03-23T11:35:04;22.17;;;16.60;;
30862;SDS011;17573;55.922;37.540;2024-03-23T11:37:30;25.15;;;15.48;;
30862;SDS011;17573;55.922;37.540;2024-03-23T11:39:56;22.10;;;14.93;;
30862;SDS011;17573;55.922;37.540;2024-03-23T11:42:22;27.58;;;15.68;;
30862;SDS011;17573;55.922;37.540;2024-03-23T11:44:48;22.23;;;15.25;;
30862;SDS011;17573;55.922;37.540;2024-03-23T11:47:14;31.45;;;15.82;;
30862;SDS011;17573;55.922;37.540;2024-03-23T11:49:40;20.75;;;14.98;;
30862;SDS011;17573;55.922;37.540;2024-03-23T11:52:06;21.52;;;14.88;;
30862;SDS011;17573;55.922;37.540;2024-03-23T11:54:35;26.60;;;16.48;;
30862;SDS011;17573;55.922;37.540;2024-03-23T11:57:04;23.75;;;13.57;;
30862;SDS011;17573;55.922;37.540;2024-03-23T12:01:59;40.25;;;16.80;;
30862;SDS011;17573;55.922;37.540;2024-03-23T12:04:29;41.63;;;16.08;;
30862;SDS011;17573;55.922;37.540;2024-03-23T12:07:10;35.67;;;14.90;;
30862;SDS011;17573;55.922;37.540;2024-03-23T12:09:40;22.00;;;15.43;;
30862;SDS011;17573;55.922;37.540;2024-03-23T12:12:07;34.30;;;17.00;;
30862;SDS011;17573;55.922;37.540;2024-03-23T12:14:37;31.40;;;17.60;;
30862;SDS011;17573;55.922;37.540;2024-03-23T12:17:13;21.65;;;14.50;;
30862;SDS011;17573;55.922;37.540;2024-03-23T12:19:39;35.00;;;16.35;;
30862;SDS011;17573;55.922;37.540;2024-03-23T12:22:07;39.63;;;16.95;;
30862;SDS011;17573;55.922;37.540;2024-03-23T12:24:33;23.60;;;14.82;;
30862;SDS011;17573;55.922;37.540;2024-03-23T12:27:03;23.58;;;14.63;;
30862;SDS011;17573;55.922;37.540;2024-03-23T12:29:32;22.30;;;14.40;;
30862;SDS011;17573;55.922;37.540;2024-03-23T12:31:59;24.67;;;14.20;;
30862;SDS011;17573;55.922;37.540;2024-03-23T12:34:26;29.15;;;13.48;;
30862;SDS011;17573;55.922;37.540;2024-03-23T12:36:51;31.85;;;14.05;;
30862;SDS011;17573;55.922;37.540;2024-03-23T12:39:17;22.73;;;14.63;;
30862;SDS011;17573;55.922;37.540;2024-03-23T12:41:43;29.92;;;13.57;;
30862;SDS011;17573;55.922;37.540;2024-03-23T12:44:09;26.90;;;18.15;;
30862;SDS011;17573;55.922;37.540;2024-03-23T12:46:37;21.40;;;13.15;;
30862;SDS011;17573;55.922;37.540;2024-03-23T12:49:03;24.13;;;14.88;;
30862;SDS011;17573;55.922;37.540;2024-03-23T12:51:32;24.02;;;15.30;;
30862;SDS011;17573;55.922;37.540;2024-03-23T12:53:58;25.05;;;17.05;;
30862;SDS011;17573;55.922;37.540;2024-03-23T12:56:24;38.20;;;16.13;;
30862;SDS011;17573;55.922;37.540;2024-03-23T12:58:50;20.15;;;12.77;;
30862;SDS011;17573;55.922;37.540;2024-03-23T13:01:20;22.10;;;14.75;;
30862;SDS011;17573;55.922;37.540;2024-03-23T13:03:49;22.42;;;15.30;;
30862;SDS011;17573;55.922;37.540;2024-03-23T13:06:16;23.20;;;16.25;;
30862;SDS011;17573;55.922;37.540;2024-03-23T13:08:45;41.80;;;18.58;;
30862;SDS011;17573;55.922;37.540;2024-03-23T13:11:11;29.40;;;17.70;;
30862;SDS011;17573;55.922;37.540;2024-03-23T13:13:41;29.20;;;15.68;;
30862;SDS011;17573;55.922;37.540;2024-03-23T13:16:10;21.27;;;15.82;;
30862;SDS011;17573;55.922;37.540;2024-03-23T13:18:36;29.60;;;15.18;;
30862;SDS011;17573;55.922;37.540;2024-03-23T13:21:01;24.95;;;16.20;;
30862;SDS011;17573;55.922;37.540;2024-03-23T13:23:27;27.00;;;16.73;;
30862;SDS011;17573;55.922;37.540;2024-03-23T13:25:53;28.95;;;15.68;;
30862;SDS011;17573;55.922;37.540;2024-03-23T13:28:21;28.17;;;17.90;;
30862;SDS011;17573;55.922;37.540;2024-03-23T13:30:51;24.85;;;15.35;;
30862;SDS011;17573;55.922;37.540;2024-03-23T13:33:17;21.48;;;15.45;;
30862;SDS011;17573;55.922;37.540;2024-03-23T13:35:49;26.27;;;16.92;;
30862;SDS011;17573;55.922;37.540;2024-03-23T13:38:19;26.65;;;16.13;;
30862;SDS011;17573;55.922;37.540;2024-03-23T13:40:49;20.73;;;15.07;;
30862;SDS011;17573;55.922;37.540;2024-03-23T13:43:25;29.02;;;15.60;;
30862;SDS011;17573;55.922;37.540;2024-03-23T13:45:55;24.75;;;16.90;;
30862;SDS011;17573;55.922;37.540;2024-03-23T13:48:26;24.60;;;14.32;;
30862;SDS011;17573;55.922;37.540;2024-03-23T13:53:24;26.83;;;15.02;;
30862;SDS011;17573;55.922;37.540;2024-03-23T13:55:50;29.00;;;16.20;;
30862;SDS011;17573;55.922;37.540;2024-03-23T13:58:16;37.05;;;17.85;;
30862;SDS011;17573;55.922;37.540;2024-03-23T14:00:42;28.95;;;16.80;;
30862;SDS011;17573;55.922;37.540;2024-03-23T14:03:11;29.92;;;16.00;;
30862;SDS011;17573;55.922;37.540;2024-03-23T14:05:38;29.30;;;15.65;;
30862;SDS011;17573;55.922;37.540;2024-03-23T14:08:10;26.15;;;15.02;;
30862;SDS011;17573;55.922;37.540;2024-03-23T14:10:37;31.30;;;13.95;;
30862;SDS011;17573;55.922;37.540;2024-03-23T14:13:06;20.77;;;14.25;;
30862;SDS011;17573;55.922;37.540;2024-03-23T14:15:31;31.58;;;15.00;;
30862;SDS011;17573;55.922;37.540;2024-03-23T14:17:57;36.88;;;16.63;;
30862;SDS011;17573;55.922;37.540;2024-03-23T14:20:23;23.40;;;15.13;;
30862;SDS011;17573;55.922;37.540;2024-03-23T14:22:49;30.30;;;17.73;;
30862;SDS011;17573;55.922;37.540;2024-03-23T14:25:15;29.15;;;15.38;;
30862;SDS011;17573;55.922;37.540;2024-03-23T14:27:43;36.67;;;17.02;;
30862;SDS011;17573;55.922;37.540;2024-03-23T14:30:10;22.20;;;16.10;;
30862;SDS011;17573;55.922;37.540;2024-03-23T14:32:38;27.60;;;16.83;;
30862;SDS011;17573;55.922;37.540;2024-03-23T14:35:04;25.92;;;17.63;;
30862;SDS011;17573;55.922;37.540;2024-03-23T14:37:30;30.83;;;16.58;;
30862;SDS011;17573;55.922;37.540;2024-03-23T14:39:56;29.85;;;16.88;;
30862;SDS011;17573;55.922;37.540;2024-03-23T14:42:22;33.90;;;17.15;;
30862;SDS011;17573;55.922;37.540;2024-03-23T14:44:52;36.40;;;16.10;;
30862;SDS011;17573;55.922;37.540;2024-03-23T14:47:18;30.08;;;17.83;;
30862;SDS011;17573;55.922;37.540;2024-03-23T14:49:45;37.90;;;19.33;;
30862;SDS011;17573;55.922;37.540;2024-03-23T14:52:18;22.95;;;17.00;;
30862;SDS011;17573;55.922;37.540;2024-03-23T14:54:45;35.15;;;17.42;;
30862;SDS011;17573;55.922;37.540;2024-03-23T14:57:11;26.83;;;16.60;;
30862;SDS011;17573;55.922;37.540;2024-03-23T14:59:37;29.35;;;18.30;;
30862;SDS011;17573;55.922;37.540;2024-03-23T15:02:09;21.33;;;15.23;;
30862;SDS011;17573;55.922;37.540;2024-03-23T15:04:36;26.17;;;17.35;;
30862;SDS011;17573;55.922;37.540;2024-03-23T15:07:02;25.65;;;15.98;;
30862;SDS011;17573;55.922;37.540;2024-03-23T15:09:28;21.15;;;13.38;;
30862;SDS011;17573;55.922;37.540;2024-03-23T15:11:54;30.25;;;15.40;;
30862;SDS011;17573;55.922;37.540;2024-03-23T15:14:23;31.98;;;15.55;;
30862;SDS011;17573;55.922;37.540;2024-03-23T15:16:49;24.83;;;13.68;;
30862;SDS011;17573;55.922;37.540;2024-03-23T15:19:17;18.70;;;13.23;;
30862;SDS011;17573;55.922;37.540;2024-03-23T15:21:43;15.07;;;12.77;;
30862;SDS011;17573;55.922;37.540;2024-03-23T15:24:09;21.30;;;13.32;;
30862;SDS011;17573;55.922;37.540;2024-03-23T15:26:36;21.08;;;15.10;;